Record high temperature 36.2°C Record low temperature -23.6°C Record high gust 74.0 km/h Record high average 55.5 km/h Record daily rain 63.5 mm Record low windchill -31.7°C Record high barometer 1043.2 hPa Record low barometer 979.5 hPa
Daily high pressure 1020.2 hPa Daily low pressure 1018.0 hPa Daily low windchill -6.1°C Daily high heat index -1.2°C Daily high gust speed 19.3 kmh NNE Daily high average speed 9.2 kmh N
Forecast: increasing clouds with little temp change, precipitation possible within 24 to 48 hrs.
Données Météo
Dernière mise à jour à : 12:01 le :January 06 2021, time of next update: 12:02
Météo actuelleDry Température actuelle-1.2°C (29.8°F), Apparent temp -3.1°C
Temperature Maximum (depuis minuit)-1.2°C at: 11:47 Temperature Minimum (depuis minuit)-2.9°C at: 07:55
Vitesse moyenne du vent (dix minutes)0.0 kmh (0.0 kts) Direction du vent (dix minutes)N (360°)
Température des rafales-1.2°C Rafale maximum (dernière heure)8.0 kmh (4.3 kts) at: 10:48
Rafale maximum (depuis minuit)19.3 kmh (10.4 kts) at: 00:33 Maximum des moyennes à 1mn (depuis minuit)9.2 kmh (5.0 kts) at: 00:35
Précipitation (dernière heure)0.0 mm Précipitation (depuis minuit)0.0 mm (0.00 in.)---
Précipitation Ce mois ci 136.7 mm (5.38 in.) Précipitation To date this year 948.4 mm (37.34 in.)
Précipitation maximum par minute (dernière heure)0.0 mm/min Précipitation maximum par heure (dernières 6 heures)0.0 mm/Heure
Précipitations de hier0.0 mm Point de rosée -5.1°C (Wet Bulb :-2.5°C )
Humidité 75 %, Humidex -4.4°C Barometre corrected to msl1019.3 hPa
Evolution de la pression -0.7 hPa (dernière heure) Tendance (dernières 1 heure)CONSTANT
Evolution de la pression dernières 12 heures)+1.2 hPa Evolution de la pression (dernières 6 heures)+0.6 hPa

This page is updated from recent data collected by a DAVIS VANTAGE PRO weather station Use the Reload or Refresh facility on your browser to retrieve the latest data.



Weather report/warning/Metars

Kingston, Ont., Canada (CYGK) 44-13N 076-36W 93M
Jan 06, 2021 - 11:00 AM EST / 2021.01.06 1600 UTC
Wind: from the NW (320 degrees) at 8 MPH (7 KT):0
Visibility: 15 mile(s):0
Sky conditions: overcast
Temperature: 30 F (-1 C)
Windchill: 23 F (-5 C):1
Dew Point: 24 F (-4 C)
Relative Humidity: 80%
Pressure (altimeter): 30.16 in. Hg (1021 hPa)
ob: CYGK 061600Z 32007KT 15SM OVC017 M01/M04 A3016 RMK SC8 SLP218
cycle: 16
Montreal / Pierre Elliot Trudeau International Airport, Que, Canada (CYUL) 45-28N 073-45W 36M
Jan 06, 2021 - 11:00 AM EST / 2021.01.06 1600 UTC
Wind: Variable at 2 MPH (2 KT):0
Visibility: 15 mile(s):0
Sky conditions: partly cloudy
Temperature: 28 F (-2 C)
Dew Point: 19 F (-7 C)
Relative Humidity: 68%
Pressure (altimeter): 30.1 in. Hg (1019 hPa)
ob: CYUL 061600Z VRB02KT 15SM FEW025 FEW180 SCT240 M02/M07 A3010 RMK CF1AC1CI1 SLP198
cycle: 16